createdAt,value
2018-05-12T00:00:54.171Z,16.90
2018-05-12T00:03:28.999Z,16.80
2018-05-12T00:06:04.265Z,16.70
2018-05-12T00:08:38.861Z,16.70
2018-05-12T00:11:13.540Z,16.70
2018-05-12T00:13:48.297Z,16.70
2018-05-12T00:16:22.932Z,16.70
2018-05-12T00:18:57.538Z,16.80
2018-05-12T00:21:33.118Z,16.80
2018-05-12T00:24:08.558Z,16.80
2018-05-12T00:26:43.443Z,16.80
2018-05-12T00:29:18.447Z,16.80
2018-05-12T00:31:53.425Z,16.80
2018-05-12T00:34:28.939Z,16.70
2018-05-12T00:37:03.906Z,16.60
2018-05-12T00:39:38.455Z,16.60
2018-05-12T00:42:13.161Z,16.60
2018-05-12T00:44:47.997Z,16.50
2018-05-12T00:47:22.656Z,16.50
2018-05-12T00:49:57.426Z,16.40
2018-05-12T00:52:32.395Z,16.30
2018-05-12T00:55:06.748Z,16.30
2018-05-12T00:57:41.344Z,16.30
2018-05-12T01:00:16.154Z,16.20
2018-05-12T01:02:50.764Z,16.20
2018-05-12T01:05:26.074Z,16.10
2018-05-12T01:08:01.609Z,16.10
2018-05-12T01:10:36.380Z,16.00
2018-05-12T01:13:10.996Z,16.10
2018-05-12T01:15:46.359Z,16.00
2018-05-12T01:18:21.230Z,16.00
2018-05-12T01:20:55.893Z,16.00
2018-05-12T01:23:30.717Z,16.00
2018-05-12T01:26:05.606Z,16.00
2018-05-12T01:28:40.214Z,16.00
2018-05-12T01:31:15.118Z,15.90
2018-05-12T01:33:49.865Z,16.00
2018-05-12T01:36:25.491Z,15.90
2018-05-12T01:39:00.187Z,15.80
2018-05-12T01:41:34.878Z,15.80
2018-05-12T01:44:09.539Z,15.80
2018-05-12T01:46:44.226Z,15.80
2018-05-12T01:49:18.893Z,15.80
2018-05-12T01:51:53.512Z,15.80
2018-05-12T01:54:28.142Z,15.80
2018-05-12T01:57:02.717Z,15.90
2018-05-12T01:59:33.525Z,15.90
2018-05-12T02:02:08.235Z,16.00
2018-05-12T02:04:43.651Z,16.00
2018-05-12T02:07:18.233Z,15.90
2018-05-12T02:09:52.984Z,16.00
2018-05-12T02:12:27.647Z,16.10
2018-05-12T02:15:02.405Z,16.10
2018-05-12T02:17:36.957Z,16.20
2018-05-12T02:20:11.999Z,16.20
2018-05-12T02:22:46.659Z,16.20
2018-05-12T02:25:21.550Z,16.10
2018-05-12T02:27:56.298Z,16.10
2018-05-12T02:30:31.709Z,16.10
2018-05-12T02:33:07.383Z,16.10
2018-05-12T02:35:41.971Z,16.00
2018-05-12T02:38:16.543Z,15.90
2018-05-12T02:40:51.064Z,15.90
2018-05-12T02:43:25.847Z,15.80
2018-05-12T02:46:00.669Z,15.80
2018-05-12T02:48:35.384Z,15.80
2018-05-12T02:51:10.703Z,15.60
2018-05-12T02:53:45.307Z,15.60
2018-05-12T02:56:20.740Z,15.60
2018-05-12T02:58:55.981Z,15.60
2018-05-12T03:01:30.627Z,15.50
2018-05-12T03:04:05.399Z,15.50
2018-05-12T03:06:39.959Z,15.40
2018-05-12T03:09:14.523Z,15.30
2018-05-12T03:11:49.129Z,15.30
2018-05-12T03:14:23.742Z,15.30
2018-05-12T03:16:58.288Z,15.30
2018-05-12T03:19:33.793Z,15.30
2018-05-12T03:22:08.399Z,15.30
2018-05-12T03:24:38.401Z,15.30
2018-05-12T03:27:12.892Z,15.30
2018-05-12T03:29:47.594Z,15.30
2018-05-12T03:32:22.969Z,15.20
2018-05-12T03:34:57.562Z,15.20
2018-05-12T03:37:32.169Z,15.10
2018-05-12T03:40:06.955Z,15.10
2018-05-12T03:42:41.242Z,15.10
2018-05-12T03:45:16.609Z,15.10
2018-05-12T03:47:51.958Z,15.10
2018-05-12T03:50:26.530Z,15.10
2018-05-12T03:53:00.931Z,15.10
2018-05-12T03:55:35.642Z,15.10
2018-05-12T03:58:10.207Z,15.10
2018-05-12T04:00:44.873Z,15.10
2018-05-12T04:03:19.486Z,15.10
2018-05-12T04:06:05.462Z,15.10
2018-05-12T04:08:52.259Z,15.10
2018-05-12T04:11:39.145Z,15.10
2018-05-12T04:14:13.778Z,15.10
2018-05-12T04:16:48.503Z,15.10
2018-05-12T04:19:23.127Z,15.20
2018-05-12T04:21:57.781Z,15.30
2018-05-12T04:24:32.407Z,15.30
2018-05-12T04:27:07.845Z,15.30
2018-05-12T04:29:43.180Z,15.40
2018-05-12T04:32:18.670Z,15.40
2018-05-12T04:34:54.314Z,15.40
2018-05-12T04:37:29.461Z,15.40
2018-05-12T04:40:04.435Z,15.50
2018-05-12T04:42:39.274Z,15.40
2018-05-12T04:45:14.726Z,15.50
2018-05-12T04:47:49.355Z,15.50
2018-05-12T04:50:23.967Z,15.50
2018-05-12T04:52:58.611Z,15.50
2018-05-12T04:55:33.253Z,15.50
2018-05-12T04:58:07.847Z,15.50
2018-05-12T05:00:43.197Z,15.50
2018-05-12T05:03:17.727Z,15.60
2018-05-12T05:05:52.305Z,15.60
2018-05-12T05:08:27.099Z,15.60
2018-05-12T05:11:01.688Z,15.60
2018-05-12T05:13:36.456Z,15.60
2018-05-12T05:16:13.432Z,15.50
2018-05-12T05:18:48.927Z,15.60
2018-05-12T05:21:23.683Z,15.50
2018-05-12T05:23:58.382Z,15.50
2018-05-12T05:26:33.054Z,15.50
2018-05-12T05:29:07.591Z,15.60
2018-05-12T05:31:43.072Z,15.60
2018-05-12T05:34:17.848Z,15.60
2018-05-12T05:36:52.495Z,15.60
2018-05-12T05:39:27.407Z,15.60
2018-05-12T05:42:02.365Z,15.60
2018-05-12T05:44:37.136Z,15.60
2018-05-12T05:47:11.949Z,15.70
2018-05-12T05:49:46.727Z,15.70
2018-05-12T05:52:22.293Z,15.80
2018-05-12T05:54:56.929Z,15.80
2018-05-12T05:57:31.864Z,15.90
2018-05-12T06:00:06.765Z,15.90
2018-05-12T06:02:41.527Z,16.00
2018-05-12T06:05:22.205Z,16.10
2018-05-12T06:08:01.306Z,16.10
2018-05-12T06:10:36.146Z,16.10
2018-05-12T06:13:11.597Z,16.20
2018-05-12T06:15:46.670Z,16.20
2018-05-12T06:18:21.261Z,16.20
2018-05-12T06:20:56.044Z,16.30
2018-05-12T06:23:30.840Z,16.30
2018-05-12T06:26:05.821Z,16.40
2018-05-12T06:28:41.357Z,16.50
2018-05-12T06:31:15.965Z,16.50
2018-05-12T06:33:50.603Z,16.60
2018-05-12T06:36:25.406Z,16.60
2018-05-12T06:39:00.572Z,16.70
2018-05-12T06:41:35.120Z,16.80
2018-05-12T06:44:09.767Z,16.90
2018-05-12T06:46:44.474Z,16.90
2018-05-12T06:49:19.089Z,17.00
2018-05-12T06:51:54.549Z,17.20
2018-05-12T06:54:29.352Z,17.20
2018-05-12T06:57:03.799Z,17.30
2018-05-12T06:59:38.554Z,17.40
2018-05-12T07:02:14.357Z,17.60
2018-05-12T07:04:49.046Z,17.60
2018-05-12T07:07:23.728Z,17.70
2018-05-12T07:09:58.307Z,17.80
2018-05-12T07:12:33.056Z,17.90
2018-05-12T07:15:08.002Z,18.00
2018-05-12T07:17:42.667Z,18.10
2018-05-12T07:20:17.621Z,18.20
2018-05-12T07:22:52.319Z,18.30
2018-05-12T07:25:27.149Z,18.30
2018-05-12T07:28:02.527Z,18.40
2018-05-12T07:30:37.364Z,18.30
2018-05-12T07:33:11.933Z,18.30
2018-05-12T07:35:46.610Z,18.40
2018-05-12T07:38:21.225Z,18.40
2018-05-12T07:40:59.864Z,18.40
2018-05-12T07:43:34.528Z,18.40
2018-05-12T07:46:09.209Z,18.40
2018-05-12T07:48:43.866Z,18.40
2018-05-12T07:51:18.469Z,18.40
2018-05-12T07:53:53.805Z,18.50
2018-05-12T07:56:28.416Z,18.40
2018-05-12T07:59:03.050Z,18.50
2018-05-12T08:01:37.685Z,18.50
2018-05-12T08:04:12.280Z,18.50
2018-05-12T08:06:46.884Z,18.50
2018-05-12T08:09:22.465Z,18.60
2018-05-12T08:11:57.094Z,18.60
2018-05-12T08:14:32.706Z,18.70
2018-05-12T08:17:08.219Z,18.80
2018-05-12T08:19:42.835Z,18.80
2018-05-12T08:22:18.119Z,19.00
2018-05-12T08:24:52.712Z,19.00
2018-05-12T08:27:27.375Z,19.10
2018-05-12T08:30:02.084Z,19.20
2018-05-12T08:32:36.821Z,19.30
2018-05-12T08:35:11.512Z,19.40
2018-05-12T08:37:46.437Z,19.60
2018-05-12T08:40:22.206Z,19.70
2018-05-12T08:42:57.002Z,19.90
2018-05-12T08:45:31.624Z,20.00
2018-05-12T08:48:06.253Z,20.10
2018-05-12T08:50:41.251Z,20.20
2018-05-12T08:53:16.249Z,20.20
2018-05-12T08:55:51.812Z,20.30
2018-05-12T08:58:26.743Z,20.30
2018-05-12T09:01:02.107Z,20.50
2018-05-12T09:03:36.555Z,20.50
2018-05-12T09:06:12.043Z,20.60
2018-05-12T09:08:46.675Z,20.60
2018-05-12T09:11:22.354Z,20.70
2018-05-12T09:13:57.050Z,20.70
2018-05-12T09:16:32.029Z,20.80
2018-05-12T09:19:06.587Z,21.00
2018-05-12T09:21:41.353Z,21.20
2018-05-12T09:24:15.890Z,21.30
2018-05-12T09:26:50.525Z,21.50
2018-05-12T09:29:25.127Z,21.60
2018-05-12T09:32:00.111Z,21.60
2018-05-12T09:34:34.784Z,21.70
2018-05-12T09:37:09.522Z,21.80
2018-05-12T09:39:44.294Z,22.00
2018-05-12T09:42:19.033Z,22.10
2018-05-12T09:44:54.103Z,22.30
2018-05-12T09:47:28.886Z,22.40
2018-05-12T09:50:03.099Z,22.50
2018-05-12T09:52:37.600Z,22.50
2018-05-12T09:55:12.337Z,22.50
2018-05-12T09:57:46.906Z,22.60
2018-05-12T10:00:25.712Z,22.60
2018-05-12T10:03:00.272Z,22.60
2018-05-12T10:05:35.123Z,22.50
2018-05-12T10:08:10.108Z,22.60
2018-05-12T10:10:44.797Z,22.60
2018-05-12T10:13:19.580Z,22.60
2018-05-12T10:15:54.471Z,22.70
2018-05-12T10:18:29.216Z,22.60
2018-05-12T10:21:04.194Z,22.60
2018-05-12T10:23:39.671Z,22.70
2018-05-12T10:26:14.501Z,22.70
2018-05-12T10:28:49.206Z,22.80
2018-05-12T10:31:23.864Z,22.90
2018-05-12T10:33:58.639Z,22.90
2018-05-12T10:36:33.745Z,23.00
2018-05-12T10:39:09.295Z,23.10
2018-05-12T10:41:44.946Z,23.20
2018-05-12T10:44:19.704Z,23.20
2018-05-12T10:46:54.331Z,23.20
2018-05-12T10:49:29.265Z,23.20
2018-05-12T10:52:03.909Z,23.20
2018-05-12T10:54:38.600Z,23.20
2018-05-12T10:57:14.160Z,23.40
2018-05-12T10:59:49.013Z,23.40
2018-05-12T11:02:23.919Z,23.50
2018-05-12T11:04:58.523Z,23.50
2018-05-12T11:07:34.108Z,23.60
2018-05-12T11:10:08.904Z,23.60
2018-05-12T11:12:43.538Z,23.70
2018-05-12T11:15:18.089Z,23.70
2018-05-12T11:17:53.644Z,23.80
2018-05-12T11:20:28.520Z,23.80
2018-05-12T11:23:03.258Z,24.00
2018-05-12T11:25:38.645Z,24.20
2018-05-12T11:28:13.430Z,24.20
2018-05-12T11:30:48.025Z,24.30
2018-05-12T11:33:22.780Z,24.40
2018-05-12T11:35:57.418Z,24.40
2018-05-12T11:38:31.959Z,24.40
2018-05-12T11:41:06.551Z,24.50
2018-05-12T11:43:41.250Z,24.60
2018-05-12T11:46:16.039Z,24.60
2018-05-12T11:48:50.704Z,24.70
2018-05-12T11:51:25.727Z,24.80
2018-05-12T11:54:00.876Z,24.90
2018-05-12T11:56:35.776Z,24.90
2018-05-12T11:59:10.923Z,24.90
2018-05-12T12:01:45.744Z,24.90
2018-05-12T12:04:20.353Z,25.00
2018-05-12T12:06:55.168Z,25.10
2018-05-12T12:09:30.533Z,25.30
2018-05-12T12:12:05.090Z,25.20
2018-05-12T12:14:40.334Z,25.40
2018-05-12T12:17:14.895Z,25.40
2018-05-12T12:19:49.622Z,25.60
2018-05-12T12:22:24.274Z,25.60
2018-05-12T12:24:58.939Z,25.70
2018-05-12T12:27:33.580Z,25.80
2018-05-12T12:30:08.250Z,25.80
2018-05-12T12:32:46.968Z,26.10
2018-05-12T12:35:21.671Z,26.10
2018-05-12T12:37:56.273Z,26.20
2018-05-12T12:40:30.922Z,26.40
2018-05-12T12:43:05.750Z,26.40
2018-05-12T12:45:41.280Z,26.60
2018-05-12T12:48:15.986Z,26.60
2018-05-12T12:50:50.605Z,26.60
2018-05-12T12:53:26.417Z,26.60
2018-05-12T12:56:01.274Z,26.60
2018-05-12T12:58:35.826Z,26.60
2018-05-12T13:01:10.402Z,26.80
2018-05-12T13:03:45.183Z,26.70
2018-05-12T13:06:20.508Z,26.90
2018-05-12T13:08:55.629Z,26.90
2018-05-12T13:11:31.060Z,26.90
2018-05-12T13:14:05.811Z,26.90
2018-05-12T13:16:40.444Z,27.00
2018-05-12T13:19:15.254Z,27.00
2018-05-12T13:21:49.925Z,26.90
2018-05-12T13:24:24.490Z,27.00
2018-05-12T13:26:58.937Z,27.00
2018-05-12T13:29:33.509Z,27.00
2018-05-12T13:32:08.083Z,27.00
2018-05-12T13:34:42.717Z,27.10
2018-05-12T13:37:17.517Z,27.20
2018-05-12T13:39:52.319Z,27.10
2018-05-12T13:42:26.896Z,27.20
2018-05-12T13:45:01.663Z,27.20
2018-05-12T13:47:36.363Z,27.20
2018-05-12T13:50:11.012Z,27.20
2018-05-12T13:52:45.608Z,27.20
2018-05-12T13:55:20.529Z,27.30
2018-05-12T13:57:55.262Z,27.20
2018-05-12T14:00:30.890Z,27.10
2018-05-12T14:03:05.255Z,27.10
2018-05-12T14:05:40.002Z,27.30
2018-05-12T14:08:14.680Z,27.40
2018-05-12T14:10:49.037Z,27.40
2018-05-12T14:13:24.479Z,27.40
2018-05-12T14:15:59.173Z,27.30
2018-05-12T14:18:33.872Z,27.40
2018-05-12T14:21:08.474Z,27.50
2018-05-12T14:23:43.339Z,27.50
2018-05-12T14:26:18.000Z,27.50
2018-05-12T14:28:52.896Z,27.50
2018-05-12T14:31:27.979Z,27.70
2018-05-12T14:34:02.649Z,27.70
2018-05-12T14:36:37.489Z,27.70
2018-05-12T14:39:12.131Z,27.40
2018-05-12T14:41:46.782Z,27.50
2018-05-12T14:44:21.509Z,27.50
2018-05-12T14:46:57.133Z,27.60
2018-05-12T14:49:31.882Z,27.60
2018-05-12T14:52:06.474Z,27.60
2018-05-12T14:54:41.117Z,27.40
2018-05-12T14:57:16.444Z,27.30
2018-05-12T14:59:50.993Z,27.30
2018-05-12T15:02:25.853Z,27.30
2018-05-12T15:05:01.877Z,27.30
2018-05-12T15:07:37.179Z,27.30
2018-05-12T15:10:11.796Z,27.20
2018-05-12T15:12:46.552Z,27.30
2018-05-12T15:15:22.172Z,27.40
2018-05-12T15:17:57.003Z,27.40
2018-05-12T15:20:31.764Z,27.50
2018-05-12T15:23:06.555Z,27.50
2018-05-12T15:25:41.164Z,27.40
2018-05-12T15:28:15.842Z,27.40
2018-05-12T15:30:51.162Z,27.20
2018-05-12T15:33:26.042Z,27.20
2018-05-12T15:36:00.756Z,27.20
2018-05-12T15:38:35.366Z,27.10
2018-05-12T15:41:09.921Z,27.10
2018-05-12T15:43:44.709Z,27.00
2018-05-12T15:46:19.683Z,27.00
2018-05-12T15:48:54.987Z,27.10
2018-05-12T15:51:29.564Z,27.00
2018-05-12T15:54:03.926Z,27.00
2018-05-12T15:56:38.678Z,27.00
2018-05-12T15:59:13.289Z,27.00
2018-05-12T16:01:47.938Z,26.90
2018-05-12T16:04:23.229Z,27.00
2018-05-12T16:06:57.752Z,27.10
2018-05-12T16:09:32.418Z,27.20
2018-05-12T16:12:07.056Z,27.30
2018-05-12T16:14:41.707Z,27.30
2018-05-12T16:17:16.484Z,27.20
2018-05-12T16:19:51.400Z,27.20
2018-05-12T16:22:26.165Z,27.20
2018-05-12T16:25:00.749Z,27.30
2018-05-12T16:27:35.304Z,27.20
2018-05-12T16:30:11.450Z,27.30
2018-05-12T16:32:46.198Z,27.30
2018-05-12T16:35:20.871Z,27.40
2018-05-12T16:37:55.400Z,27.40
2018-05-12T16:40:30.060Z,27.40
2018-05-12T16:43:04.861Z,27.30
2018-05-12T16:45:40.337Z,27.10
2018-05-12T16:48:15.218Z,27.10
2018-05-12T16:50:50.190Z,27.00
2018-05-12T16:53:24.926Z,26.90
2018-05-12T16:55:59.562Z,26.80
2018-05-12T16:58:34.192Z,26.70
2018-05-12T17:01:08.916Z,26.60
2018-05-12T17:03:43.489Z,26.60
2018-05-12T17:06:19.715Z,26.40
2018-05-12T17:08:54.599Z,26.40
2018-05-12T17:11:29.208Z,26.30
2018-05-12T17:14:04.601Z,26.10
2018-05-12T17:16:39.272Z,26.10
2018-05-12T17:19:14.828Z,26.00
2018-05-12T17:21:49.792Z,26.00
2018-05-12T17:24:24.523Z,25.90
2018-05-12T17:27:00.070Z,25.80
2018-05-12T17:29:34.785Z,25.80
2018-05-12T17:32:09.384Z,25.70
2018-05-12T17:34:44.051Z,25.60
2018-05-12T17:37:18.740Z,25.50
2018-05-12T17:39:54.434Z,25.40
2018-05-12T17:42:29.120Z,25.30
2018-05-12T17:45:03.705Z,25.20
2018-05-12T17:47:38.393Z,25.10
2018-05-12T17:50:13.953Z,25.00
2018-05-12T17:52:48.520Z,24.90
2018-05-12T17:55:23.299Z,24.90
2018-05-12T17:57:57.890Z,24.80
2018-05-12T18:00:32.479Z,24.70
2018-05-12T18:03:07.160Z,24.60
2018-05-12T18:05:41.904Z,24.60
2018-05-12T18:08:16.708Z,24.50
2018-05-12T18:10:51.412Z,24.50
2018-05-12T18:13:26.382Z,24.30
2018-05-12T18:16:01.214Z,24.30
2018-05-12T18:18:36.041Z,24.30
2018-05-12T18:21:10.659Z,24.20
2018-05-12T18:23:45.254Z,24.20
2018-05-12T18:26:20.062Z,24.10
2018-05-12T18:28:54.741Z,24.00
2018-05-12T18:31:29.675Z,23.90
2018-05-12T18:34:04.249Z,23.80
2018-05-12T18:36:39.032Z,23.70
2018-05-12T18:39:13.581Z,23.60
2018-05-12T18:41:48.958Z,23.30
2018-05-12T18:44:23.758Z,23.30
2018-05-12T18:46:53.504Z,23.00
2018-05-12T18:49:22.693Z,23.00
2018-05-12T18:51:52.459Z,22.90
2018-05-12T18:54:22.366Z,22.80
2018-05-12T18:56:51.577Z,22.70
2018-05-12T18:59:21.577Z,22.50
2018-05-12T19:01:50.533Z,22.50
2018-05-12T19:04:19.815Z,22.40
2018-05-12T19:06:48.909Z,22.30
2018-05-12T19:09:18.394Z,22.20
2018-05-12T19:11:47.394Z,22.10
2018-05-12T19:14:16.555Z,22.00
2018-05-12T19:16:46.076Z,21.90
2018-05-12T19:19:15.344Z,21.80
2018-05-12T19:21:45.123Z,21.70
2018-05-12T19:24:15.084Z,21.60
2018-05-12T19:26:44.097Z,21.60
2018-05-12T19:29:12.748Z,21.60
2018-05-12T19:31:42.740Z,21.40
2018-05-12T19:34:11.961Z,21.40
2018-05-12T19:36:41.161Z,21.40
2018-05-12T19:39:10.264Z,21.30
2018-05-12T19:41:39.309Z,21.30
2018-05-12T19:44:08.764Z,21.30
2018-05-12T19:46:37.705Z,21.20
2018-05-12T19:49:06.876Z,21.20
2018-05-12T19:51:36.019Z,21.10
2018-05-12T19:54:04.845Z,21.10
2018-05-12T19:56:33.966Z,21.00
2018-05-12T19:59:03.012Z,21.00
2018-05-12T20:01:37.954Z,20.90
2018-05-12T20:04:13.611Z,20.80
2018-05-12T20:06:48.597Z,20.80
2018-05-12T20:09:23.589Z,20.80
2018-05-12T20:11:58.208Z,20.70
2018-05-12T20:14:33.021Z,20.70
2018-05-12T20:17:07.659Z,20.60
2018-05-12T20:19:42.474Z,20.60
2018-05-12T20:22:17.216Z,20.50
2018-05-12T20:24:51.845Z,20.40
2018-05-12T20:27:27.271Z,20.40
2018-05-12T20:29:56.805Z,20.30
2018-05-12T20:32:31.552Z,20.30
2018-05-12T20:35:06.180Z,20.30
2018-05-12T20:37:40.875Z,20.30
2018-05-12T20:40:16.573Z,20.20
2018-05-12T20:42:51.230Z,20.10
2018-05-12T20:45:26.150Z,20.10
2018-05-12T20:48:01.692Z,20.00
2018-05-12T20:50:36.550Z,20.00
2018-05-12T20:53:11.370Z,19.90
2018-05-12T20:55:46.052Z,19.90
2018-05-12T20:58:20.622Z,19.90
2018-05-12T21:00:57.071Z,19.80
2018-05-12T21:03:31.760Z,19.80
2018-05-12T21:06:01.334Z,19.70
2018-05-12T21:08:35.998Z,19.70
2018-05-12T21:11:11.354Z,19.70
2018-05-12T21:13:46.108Z,19.60
2018-05-12T21:16:25.814Z,19.60
2018-05-12T21:19:00.837Z,19.60
2018-05-12T21:21:35.465Z,19.50
2018-05-12T21:24:10.202Z,19.50
2018-05-12T21:26:44.956Z,19.50
2018-05-12T21:29:20.397Z,19.30
2018-05-12T21:31:55.349Z,19.30
2018-05-12T21:34:30.121Z,19.30
2018-05-12T21:37:05.899Z,19.20
2018-05-12T21:39:40.512Z,19.20
2018-05-12T21:42:21.179Z,19.10
2018-05-12T21:44:55.849Z,19.10
2018-05-12T21:47:30.507Z,19.20
2018-05-12T21:50:05.387Z,19.10
2018-05-12T21:52:40.052Z,19.10
2018-05-12T21:55:14.820Z,19.10
2018-05-12T21:57:49.427Z,19.10
2018-05-12T22:00:24.081Z,19.00
2018-05-12T22:02:58.683Z,19.00
2018-05-12T22:05:33.404Z,19.00
2018-05-12T22:08:08.056Z,19.00
2018-05-12T22:10:42.884Z,19.00
2018-05-12T22:13:17.703Z,18.90
2018-05-12T22:15:52.139Z,18.90
2018-05-12T22:18:27.018Z,18.90
2018-05-12T22:21:01.698Z,18.90
2018-05-12T22:23:37.342Z,18.90
2018-05-12T22:26:11.983Z,18.90
2018-05-12T22:28:46.702Z,18.90
2018-05-12T22:31:21.652Z,18.90
2018-05-12T22:33:56.772Z,18.90
2018-05-12T22:36:31.485Z,18.90
2018-05-12T22:39:05.462Z,18.80
2018-05-12T22:41:40.353Z,18.80
2018-05-12T22:44:15.160Z,18.80
2018-05-12T22:46:50.739Z,18.70
2018-05-12T22:49:25.464Z,18.70
2018-05-12T22:52:00.144Z,18.70
2018-05-12T22:54:34.749Z,18.70
2018-05-12T22:57:09.364Z,18.60
2018-05-12T22:59:44.612Z,18.60
2018-05-12T23:02:19.159Z,18.60
2018-05-12T23:04:53.766Z,18.60
2018-05-12T23:07:28.336Z,18.60
2018-05-12T23:10:02.913Z,18.60
2018-05-12T23:12:37.566Z,18.60
2018-05-12T23:15:12.195Z,18.60
2018-05-12T23:17:46.779Z,18.60
2018-05-12T23:20:21.387Z,18.60
2018-05-12T23:22:56.959Z,18.60
2018-05-12T23:25:31.601Z,18.60
2018-05-12T23:28:06.216Z,18.50
2018-05-12T23:30:40.877Z,18.50
2018-05-12T23:33:15.250Z,18.40
2018-05-12T23:35:50.675Z,18.30
2018-05-12T23:38:25.521Z,18.30
2018-05-12T23:41:00.084Z,18.30
2018-05-12T23:43:29.904Z,18.30
2018-05-12T23:46:04.724Z,18.30
2018-05-12T23:48:39.294Z,18.20
2018-05-12T23:51:14.039Z,18.20
2018-05-12T23:53:48.757Z,18.20
2018-05-12T23:56:23.390Z,18.00
2018-05-12T23:58:57.962Z,18.10
